メインページ
METAR-TAF:

METAR-TAF

空港 :

シアトル・タコマ国際空港

シアトル / タコマ, ワシントン, アメリカ合衆国

緯度: 47-26-41N, 経度: 122-18-49W, 海抜: 130m

現時点の気象観測

当レポートは57分前の08:53(UTC)に作成
南/南西の風 8kt
気温 13°C
湿度 77%
気圧 1016 hPa
視程: 16.1km
高度2700ftの千切れ雲あり
高度4400ftの千切れ雲あり
高度8000ftの曇り

METAR: KSEA 200853Z 21008KT 10SM BKN027 BKN044 OVC080 13/09 A2999 RMK AO2 SLP160 6//// T01280089 53002 $

時間: 02:50 (09:50 UTC)

予報

当レポートは51分前の08:59(UTC)に作成
予報は20日の 09時(UTC)から 21日の 12時(UTC)まで有効
南/南西の風 8kt
視程: 10km
高度2500ftの曇り
20日の 1300時(UTC)から
南西の風 6kt
視程: 10km
高度1500ftの曇り
20日の 2000時(UTC)から
西/南西の風 7kt
視程: 10km
高度2000ftの雲は散在している
高度4000ftの千切れ雲あり
21日の 0000時(UTC)から
西/北西の風 6kt
視程: 10km
高度10000ftの千切れ雲あり

TAF: KSEA 200859Z 2009/2112 21008KT P6SM OVC025 FM201300 22006KT P6SM OVC015 FM202000 25007KT P6SM SCT020 BKN040 FM210000 30006KT P6SM BKN100

4,000以上の空港の気象観測と天気予報(METAR報とTAF報)

利用可能な観測所は地図上に黄色い丸と赤い丸で示す。

丸の上にカーソルを重ねると観測所名を参照できる。

次にクリックすると気象観測と天気予報を参照できる。

マップの切り替え:黒色「×」印の緑ボタンをクリックして拡大、「-」印の緑ボタンをクリックして縮小、緑色の三角印をクリックして隣りの地図に切り替え


METAR-TAF: